aviador You're here:

VOCL Decoded Metar

CALICUT in INDIA
Report Time2018-05-20 22:30:00
UTC Time2018-05-20 23:03:28
Flight Rules mvfr MVFR
Wind110° at 03 kt
W.Decomp.*RWY 10: 2.9 kt HW 0.6 kt RCW
W.Rank110° ranks 17
Current wind is below 110° avg. (4.3)
Visibility6000 m
Phenomena:N/A
Clouds:Scattered 012 Hf
Few CB 025 Hf
Scattered 080 Hf
Expected CloudBase > 1,600 ft AGL from Temp-Dew spread
CeilingNone
Temp26°C (ISA +12)
Dew Point22°C (79% RH)
QNH1006 hPa
Density Alt2,277 ft
Elevation341 ft
Report Wrong Elevation
Raw Report
METAR VOCL 202230Z 11003KT 6000 SCT012 SCT080 FEW025CB 26/22 Q1006
NOSIG=

Extra information for VOCL:More info

Metar Taf Metar & Taf Last 4 Metars F.Rules Stats Wind Profile Meteogram Temp Stats Airport Information Weather charts Add Link Nearby VenuesMetar ALERT Operation Metar Decoded Social comments